sensor_id;sensor_type;location;lat;lon;timestamp;P1;durP1;ratioP1;P2;durP2;ratioP2
55609;SDS011;41486;52.502;13.486;2023-02-24T00:01:48;27.08;;;11.18;;
55609;SDS011;41486;52.502;13.486;2023-02-24T00:04:18;24.38;;;10.00;;
55609;SDS011;41486;52.502;13.486;2023-02-24T00:06:47;32.25;;;9.95;;
55609;SDS011;41486;52.502;13.486;2023-02-24T00:09:16;24.48;;;9.00;;
55609;SDS011;41486;52.502;13.486;2023-02-24T00:11:47;25.63;;;10.07;;
55609;SDS011;41486;52.502;13.486;2023-02-24T00:14:19;19.25;;;9.10;;
55609;SDS011;41486;52.502;13.486;2023-02-24T00:16:48;21.25;;;8.40;;
55609;SDS011;41486;52.502;13.486;2023-02-24T00:19:18;24.27;;;9.38;;
55609;SDS011;41486;52.502;13.486;2023-02-24T00:21:46;21.63;;;7.53;;
55609;SDS011;41486;52.502;13.486;2023-02-24T00:24:15;22.65;;;8.75;;
55609;SDS011;41486;52.502;13.486;2023-02-24T00:26:43;22.95;;;7.85;;
55609;SDS011;41486;52.502;13.486;2023-02-24T00:29:13;14.77;;;5.78;;
55609;SDS011;41486;52.502;13.486;2023-02-24T00:31:41;28.70;;;9.90;;
55609;SDS011;41486;52.502;13.486;2023-02-24T00:34:11;19.35;;;8.35;;
55609;SDS011;41486;52.502;13.486;2023-02-24T00:39:36;19.48;;;8.38;;
55609;SDS011;41486;52.502;13.486;2023-02-24T00:42:08;16.52;;;6.40;;
55609;SDS011;41486;52.502;13.486;2023-02-24T00:44:37;19.27;;;7.57;;
55609;SDS011;41486;52.502;13.486;2023-02-24T00:47:13;25.52;;;6.85;;
55609;SDS011;41486;52.502;13.486;2023-02-24T00:49:48;17.13;;;8.63;;
55609;SDS011;41486;52.502;13.486;2023-02-24T00:52:17;20.15;;;7.60;;
55609;SDS011;41486;52.502;13.486;2023-02-24T00:54:47;21.45;;;8.88;;
55609;SDS011;41486;52.502;13.486;2023-02-24T00:57:16;16.92;;;6.50;;
55609;SDS011;41486;52.502;13.486;2023-02-24T00:59:48;13.15;;;6.25;;
55609;SDS011;41486;52.502;13.486;2023-02-24T01:02:17;10.98;;;5.00;;
55609;SDS011;41486;52.502;13.486;2023-02-24T01:04:45;14.95;;;5.80;;
55609;SDS011;41486;52.502;13.486;2023-02-24T01:07:17;14.05;;;5.05;;
55609;SDS011;41486;52.502;13.486;2023-02-24T01:09:49;15.57;;;5.88;;
55609;SDS011;41486;52.502;13.486;2023-02-24T01:12:27;8.43;;;3.22;;
55609;SDS011;41486;52.502;13.486;2023-02-24T01:15:16;14.00;;;5.30;;
55609;SDS011;41486;52.502;13.486;2023-02-24T01:17:49;6.22;;;2.97;;
55609;SDS011;41486;52.502;13.486;2023-02-24T01:20:22;14.15;;;4.47;;
55609;SDS011;41486;52.502;13.486;2023-02-24T01:22:53;12.38;;;5.35;;
55609;SDS011;41486;52.502;13.486;2023-02-24T01:25:23;13.00;;;5.15;;
55609;SDS011;41486;52.502;13.486;2023-02-24T01:28:03;10.75;;;4.15;;
55609;SDS011;41486;52.502;13.486;2023-02-24T01:30:39;15.80;;;5.30;;
55609;SDS011;41486;52.502;13.486;2023-02-24T01:33:10;12.90;;;3.95;;
55609;SDS011;41486;52.502;13.486;2023-02-24T01:35:40;11.35;;;3.88;;
55609;SDS011;41486;52.502;13.486;2023-02-24T01:38:14;11.57;;;3.15;;
55609;SDS011;41486;52.502;13.486;2023-02-24T01:40:55;8.93;;;3.35;;
55609;SDS011;41486;52.502;13.486;2023-02-24T01:43:27;8.13;;;3.60;;
55609;SDS011;41486;52.502;13.486;2023-02-24T01:46:09;13.35;;;4.30;;
55609;SDS011;41486;52.502;13.486;2023-02-24T01:48:39;7.18;;;2.92;;
55609;SDS011;41486;52.502;13.486;2023-02-24T01:51:08;12.05;;;2.97;;
55609;SDS011;41486;52.502;13.486;2023-02-24T01:53:39;14.23;;;3.55;;
55609;SDS011;41486;52.502;13.486;2023-02-24T01:56:07;14.15;;;5.13;;
55609;SDS011;41486;52.502;13.486;2023-02-24T01:58:39;9.50;;;3.10;;
55609;SDS011;41486;52.502;13.486;2023-02-24T02:01:08;7.65;;;2.42;;
55609;SDS011;41486;52.502;13.486;2023-02-24T02:03:37;8.65;;;2.63;;
55609;SDS011;41486;52.502;13.486;2023-02-24T02:06:11;9.27;;;3.97;;
55609;SDS011;41486;52.502;13.486;2023-02-24T02:08:44;9.63;;;2.77;;
55609;SDS011;41486;52.502;13.486;2023-02-24T02:11:14;13.55;;;3.28;;
55609;SDS011;41486;52.502;13.486;2023-02-24T02:13:46;7.85;;;2.80;;
55609;SDS011;41486;52.502;13.486;2023-02-24T02:16:27;5.25;;;2.22;;
55609;SDS011;41486;52.502;13.486;2023-02-24T02:19:15;13.88;;;2.65;;
55609;SDS011;41486;52.502;13.486;2023-02-24T02:22:06;5.65;;;1.60;;
55609;SDS011;41486;52.502;13.486;2023-02-24T02:24:51;5.45;;;2.13;;
55609;SDS011;41486;52.502;13.486;2023-02-24T02:27:26;9.18;;;1.85;;
55609;SDS011;41486;52.502;13.486;2023-02-24T02:30:10;10.85;;;3.17;;
55609;SDS011;41486;52.502;13.486;2023-02-24T02:36:05;12.85;;;2.40;;
55609;SDS011;41486;52.502;13.486;2023-02-24T02:38:42;9.52;;;1.90;;
55609;SDS011;41486;52.502;13.486;2023-02-24T02:41:19;11.18;;;2.42;;
55609;SDS011;41486;52.502;13.486;2023-02-24T02:43:55;9.98;;;2.17;;
55609;SDS011;41486;52.502;13.486;2023-02-24T02:46:35;7.40;;;1.63;;
55609;SDS011;41486;52.502;13.486;2023-02-24T02:49:10;8.75;;;1.58;;
55609;SDS011;41486;52.502;13.486;2023-02-24T02:51:47;3.22;;;1.30;;
55609;SDS011;41486;52.502;13.486;2023-02-24T02:54:21;6.90;;;2.92;;
55609;SDS011;41486;52.502;13.486;2023-02-24T02:56:56;4.07;;;1.30;;
55609;SDS011;41486;52.502;13.486;2023-02-24T02:59:28;9.55;;;2.50;;
55609;SDS011;41486;52.502;13.486;2023-02-24T03:01:59;4.18;;;1.77;;
55609;SDS011;41486;52.502;13.486;2023-02-24T03:04:41;4.07;;;1.70;;
55609;SDS011;41486;52.502;13.486;2023-02-24T03:07:17;4.32;;;1.52;;
55609;SDS011;41486;52.502;13.486;2023-02-24T03:09:49;7.45;;;2.05;;
55609;SDS011;41486;52.502;13.486;2023-02-24T03:12:22;4.60;;;1.60;;
55609;SDS011;41486;52.502;13.486;2023-02-24T03:14:55;4.78;;;1.50;;
55609;SDS011;41486;52.502;13.486;2023-02-24T03:20:04;6.15;;;1.90;;
55609;SDS011;41486;52.502;13.486;2023-02-24T03:22:44;4.60;;;1.65;;
55609;SDS011;41486;52.502;13.486;2023-02-24T03:27:48;1.75;;;0.80;;
55609;SDS011;41486;52.502;13.486;2023-02-24T03:30:19;11.15;;;1.92;;
55609;SDS011;41486;52.502;13.486;2023-02-24T03:32:50;3.58;;;1.50;;
55609;SDS011;41486;52.502;13.486;2023-02-24T03:35:26;4.80;;;1.45;;
55609;SDS011;41486;52.502;13.486;2023-02-24T03:38:00;10.27;;;1.88;;
55609;SDS011;41486;52.502;13.486;2023-02-24T03:40:29;9.25;;;1.80;;
55609;SDS011;41486;52.502;13.486;2023-02-24T03:43:03;4.85;;;1.90;;
55609;SDS011;41486;52.502;13.486;2023-02-24T03:45:35;5.05;;;1.92;;
55609;SDS011;41486;52.502;13.486;2023-02-24T03:48:04;5.45;;;1.58;;
55609;SDS011;41486;52.502;13.486;2023-02-24T03:50:34;5.25;;;1.38;;
55609;SDS011;41486;52.502;13.486;2023-02-24T03:53:22;6.13;;;1.70;;
55609;SDS011;41486;52.502;13.486;2023-02-24T03:56:01;5.38;;;1.23;;
55609;SDS011;41486;52.502;13.486;2023-02-24T03:58:43;9.90;;;1.55;;
55609;SDS011;41486;52.502;13.486;2023-02-24T04:01:24;6.93;;;1.52;;
55609;SDS011;41486;52.502;13.486;2023-02-24T04:03:58;9.35;;;1.73;;
55609;SDS011;41486;52.502;13.486;2023-02-24T04:06:38;8.10;;;2.17;;
55609;SDS011;41486;52.502;13.486;2023-02-24T04:09:14;3.33;;;1.67;;
55609;SDS011;41486;52.502;13.486;2023-02-24T04:11:55;5.65;;;1.45;;
55609;SDS011;41486;52.502;13.486;2023-02-24T04:14:32;5.70;;;1.98;;
55609;SDS011;41486;52.502;13.486;2023-02-24T04:17:07;9.57;;;1.90;;
55609;SDS011;41486;52.502;13.486;2023-02-24T04:19:41;4.30;;;1.60;;
55609;SDS011;41486;52.502;13.486;2023-02-24T04:22:11;5.80;;;1.30;;
55609;SDS011;41486;52.502;13.486;2023-02-24T04:24:43;7.57;;;1.25;;
55609;SDS011;41486;52.502;13.486;2023-02-24T04:27:17;7.72;;;1.92;;
55609;SDS011;41486;52.502;13.486;2023-02-24T04:29:49;5.53;;;1.75;;
55609;SDS011;41486;52.502;13.486;2023-02-24T04:32:20;4.60;;;1.70;;
55609;SDS011;41486;52.502;13.486;2023-02-24T04:34:52;3.35;;;1.20;;
55609;SDS011;41486;52.502;13.486;2023-02-24T04:37:28;8.73;;;1.60;;
55609;SDS011;41486;52.502;13.486;2023-02-24T04:40:01;5.07;;;1.40;;
55609;SDS011;41486;52.502;13.486;2023-02-24T04:42:36;2.85;;;1.52;;
55609;SDS011;41486;52.502;13.486;2023-02-24T04:45:12;5.65;;;1.80;;
55609;SDS011;41486;52.502;13.486;2023-02-24T04:47:42;6.70;;;2.50;;
55609;SDS011;41486;52.502;13.486;2023-02-24T04:50:15;6.35;;;2.10;;
55609;SDS011;41486;52.502;13.486;2023-02-24T04:52:49;6.77;;;1.73;;
55609;SDS011;41486;52.502;13.486;2023-02-24T04:55:19;3.85;;;1.73;;
55609;SDS011;41486;52.502;13.486;2023-02-24T04:57:51;9.00;;;1.83;;
55609;SDS011;41486;52.502;13.486;2023-02-24T05:00:19;8.77;;;1.85;;
55609;SDS011;41486;52.502;13.486;2023-02-24T05:02:48;4.38;;;1.48;;
55609;SDS011;41486;52.502;13.486;2023-02-24T05:05:17;5.05;;;1.20;;
55609;SDS011;41486;52.502;13.486;2023-02-24T05:07:51;6.50;;;1.55;;
55609;SDS011;41486;52.502;13.486;2023-02-24T05:10:21;6.50;;;2.10;;
55609;SDS011;41486;52.502;13.486;2023-02-24T05:12:53;4.32;;;1.50;;
55609;SDS011;41486;52.502;13.486;2023-02-24T05:15:23;7.32;;;1.73;;
55609;SDS011;41486;52.502;13.486;2023-02-24T05:17:57;5.05;;;1.30;;
55609;SDS011;41486;52.502;13.486;2023-02-24T05:20:26;2.38;;;1.20;;
55609;SDS011;41486;52.502;13.486;2023-02-24T05:23:11;2.53;;;1.52;;
55609;SDS011;41486;52.502;13.486;2023-02-24T05:25:43;5.95;;;1.73;;
55609;SDS011;41486;52.502;13.486;2023-02-24T05:28:11;5.85;;;1.58;;
55609;SDS011;41486;52.502;13.486;2023-02-24T05:30:39;6.15;;;1.50;;
55609;SDS011;41486;52.502;13.486;2023-02-24T05:33:07;5.25;;;1.40;;
55609;SDS011;41486;52.502;13.486;2023-02-24T05:35:35;1.67;;;0.98;;
55609;SDS011;41486;52.502;13.486;2023-02-24T05:38:04;5.68;;;1.30;;
55609;SDS011;41486;52.502;13.486;2023-02-24T05:40:33;3.92;;;1.35;;
55609;SDS011;41486;52.502;13.486;2023-02-24T05:43:03;2.95;;;1.30;;
55609;SDS011;41486;52.502;13.486;2023-02-24T05:45:31;9.02;;;1.85;;
55609;SDS011;41486;52.502;13.486;2023-02-24T05:47:59;5.60;;;1.60;;
55609;SDS011;41486;52.502;13.486;2023-02-24T05:50:31;1.20;;;0.80;;
55609;SDS011;41486;52.502;13.486;2023-02-24T05:52:59;4.55;;;1.45;;
55609;SDS011;41486;52.502;13.486;2023-02-24T05:55:28;3.70;;;1.15;;
55609;SDS011;41486;52.502;13.486;2023-02-24T05:57:57;3.17;;;1.00;;
55609;SDS011;41486;52.502;13.486;2023-02-24T06:00:27;3.40;;;0.93;;
55609;SDS011;41486;52.502;13.486;2023-02-24T06:02:55;3.83;;;1.35;;
55609;SDS011;41486;52.502;13.486;2023-02-24T06:05:33;3.35;;;1.13;;
55609;SDS011;41486;52.502;13.486;2023-02-24T06:08:05;4.13;;;0.95;;
55609;SDS011;41486;52.502;13.486;2023-02-24T06:10:37;3.33;;;0.95;;
55609;SDS011;41486;52.502;13.486;2023-02-24T06:13:06;3.08;;;1.05;;
55609;SDS011;41486;52.502;13.486;2023-02-24T06:15:37;3.55;;;1.35;;
55609;SDS011;41486;52.502;13.486;2023-02-24T06:18:07;6.13;;;1.23;;
55609;SDS011;41486;52.502;13.486;2023-02-24T06:20:37;3.80;;;1.20;;
55609;SDS011;41486;52.502;13.486;2023-02-24T06:23:05;3.25;;;1.23;;
55609;SDS011;41486;52.502;13.486;2023-02-24T06:25:34;3.70;;;1.13;;
55609;SDS011;41486;52.502;13.486;2023-02-24T06:28:04;8.65;;;1.77;;
55609;SDS011;41486;52.502;13.486;2023-02-24T06:30:32;1.50;;;0.90;;
55609;SDS011;41486;52.502;13.486;2023-02-24T06:33:02;5.07;;;0.85;;
55609;SDS011;41486;52.502;13.486;2023-02-24T06:35:31;3.42;;;1.52;;
55609;SDS011;41486;52.502;13.486;2023-02-24T06:37:59;1.92;;;0.73;;
55609;SDS011;41486;52.502;13.486;2023-02-24T06:40:27;6.05;;;1.02;;
55609;SDS011;41486;52.502;13.486;2023-02-24T06:42:56;4.65;;;1.90;;
55609;SDS011;41486;52.502;13.486;2023-02-24T06:45:25;4.30;;;1.10;;
55609;SDS011;41486;52.502;13.486;2023-02-24T06:47:54;2.60;;;0.90;;
55609;SDS011;41486;52.502;13.486;2023-02-24T06:50:23;0.93;;;0.77;;
55609;SDS011;41486;52.502;13.486;2023-02-24T06:52:53;7.20;;;1.38;;
55609;SDS011;41486;52.502;13.486;2023-02-24T06:55:24;2.53;;;0.63;;
55609;SDS011;41486;52.502;13.486;2023-02-24T06:57:53;2.88;;;0.98;;
55609;SDS011;41486;52.502;13.486;2023-02-24T07:00:24;2.88;;;0.85;;
55609;SDS011;41486;52.502;13.486;2023-02-24T07:03:03;3.17;;;1.67;;
55609;SDS011;41486;52.502;13.486;2023-02-24T07:05:51;3.70;;;1.15;;
55609;SDS011;41486;52.502;13.486;2023-02-24T07:08:36;4.40;;;1.17;;
55609;SDS011;41486;52.502;13.486;2023-02-24T07:11:06;4.15;;;1.60;;
55609;SDS011;41486;52.502;13.486;2023-02-24T07:13:34;3.58;;;0.98;;
55609;SDS011;41486;52.502;13.486;2023-02-24T07:16:03;2.60;;;1.10;;
55609;SDS011;41486;52.502;13.486;2023-02-24T07:18:32;2.75;;;1.48;;
55609;SDS011;41486;52.502;13.486;2023-02-24T07:21:03;5.22;;;1.55;;
55609;SDS011;41486;52.502;13.486;2023-02-24T07:23:37;7.25;;;1.08;;
55609;SDS011;41486;52.502;13.486;2023-02-24T07:26:06;4.50;;;1.20;;
55609;SDS011;41486;52.502;13.486;2023-02-24T07:28:37;2.97;;;0.85;;
55609;SDS011;41486;52.502;13.486;2023-02-24T07:31:06;5.30;;;2.65;;
55609;SDS011;41486;52.502;13.486;2023-02-24T07:33:36;11.38;;;5.72;;
55609;SDS011;41486;52.502;13.486;2023-02-24T07:36:06;2.45;;;0.70;;
55609;SDS011;41486;52.502;13.486;2023-02-24T07:38:35;2.55;;;1.42;;
55609;SDS011;41486;52.502;13.486;2023-02-24T07:41:04;2.83;;;0.90;;
55609;SDS011;41486;52.502;13.486;2023-02-24T07:43:33;5.95;;;1.20;;
55609;SDS011;41486;52.502;13.486;2023-02-24T07:46:05;1.42;;;0.85;;
55609;SDS011;41486;52.502;13.486;2023-02-24T07:48:34;2.63;;;1.63;;
55609;SDS011;41486;52.502;13.486;2023-02-24T07:51:06;3.22;;;1.35;;
55609;SDS011;41486;52.502;13.486;2023-02-24T07:53:34;6.22;;;1.20;;
55609;SDS011;41486;52.502;13.486;2023-02-24T07:56:04;1.92;;;0.90;;
55609;SDS011;41486;52.502;13.486;2023-02-24T07:58:36;2.08;;;1.25;;
55609;SDS011;41486;52.502;13.486;2023-02-24T08:01:04;3.05;;;1.83;;
55609;SDS011;41486;52.502;13.486;2023-02-24T08:03:34;3.42;;;1.08;;
55609;SDS011;41486;52.502;13.486;2023-02-24T08:06:08;2.92;;;1.35;;
55609;SDS011;41486;52.502;13.486;2023-02-24T08:08:42;2.13;;;1.77;;
55609;SDS011;41486;52.502;13.486;2023-02-24T08:11:25;3.28;;;1.45;;
55609;SDS011;41486;52.502;13.486;2023-02-24T08:13:59;11.43;;;3.88;;
55609;SDS011;41486;52.502;13.486;2023-02-24T08:16:29;6.53;;;1.40;;
55609;SDS011;41486;52.502;13.486;2023-02-24T08:19:05;2.17;;;1.02;;
55609;SDS011;41486;52.502;13.486;2023-02-24T08:21:34;7.22;;;1.33;;
55609;SDS011;41486;52.502;13.486;2023-02-24T08:24:06;4.85;;;1.20;;
55609;SDS011;41486;52.502;13.486;2023-02-24T08:26:43;2.85;;;1.20;;
55609;SDS011;41486;52.502;13.486;2023-02-24T08:29:13;17.33;;;7.40;;
55609;SDS011;41486;52.502;13.486;2023-02-24T08:31:45;13.27;;;7.40;;
55609;SDS011;41486;52.502;13.486;2023-02-24T08:34:15;4.90;;;1.83;;
55609;SDS011;41486;52.502;13.486;2023-02-24T08:36:48;3.08;;;0.75;;
55609;SDS011;41486;52.502;13.486;2023-02-24T08:39:21;3.83;;;1.17;;
55609;SDS011;41486;52.502;13.486;2023-02-24T08:41:49;3.65;;;1.58;;
55609;SDS011;41486;52.502;13.486;2023-02-24T08:44:19;5.15;;;1.95;;
55609;SDS011;41486;52.502;13.486;2023-02-24T08:46:48;3.95;;;1.33;;
55609;SDS011;41486;52.502;13.486;2023-02-24T08:49:18;3.78;;;1.10;;
55609;SDS011;41486;52.502;13.486;2023-02-24T08:51:51;4.25;;;1.15;;
55609;SDS011;41486;52.502;13.486;2023-02-24T08:54:20;2.80;;;0.80;;
55609;SDS011;41486;52.502;13.486;2023-02-24T08:56:53;2.85;;;0.82;;
55609;SDS011;41486;52.502;13.486;2023-02-24T08:59:23;5.68;;;0.90;;
55609;SDS011;41486;52.502;13.486;2023-02-24T09:02:04;6.00;;;1.30;;
55609;SDS011;41486;52.502;13.486;2023-02-24T09:04:53;1.60;;;0.95;;
55609;SDS011;41486;52.502;13.486;2023-02-24T09:07:25;3.60;;;2.03;;
55609;SDS011;41486;52.502;13.486;2023-02-24T09:09:58;5.13;;;1.70;;
55609;SDS011;41486;52.502;13.486;2023-02-24T09:12:28;3.55;;;1.70;;
55609;SDS011;41486;52.502;13.486;2023-02-24T09:14:58;4.25;;;1.38;;
55609;SDS011;41486;52.502;13.486;2023-02-24T09:17:30;2.05;;;1.10;;
55609;SDS011;41486;52.502;13.486;2023-02-24T09:20:16;3.63;;;1.30;;
55609;SDS011;41486;52.502;13.486;2023-02-24T09:23:04;2.25;;;1.30;;
55609;SDS011;41486;52.502;13.486;2023-02-24T09:25:35;3.33;;;1.00;;
55609;SDS011;41486;52.502;13.486;2023-02-24T09:28:07;2.20;;;1.13;;
55609;SDS011;41486;52.502;13.486;2023-02-24T09:30:43;4.93;;;0.93;;
55609;SDS011;41486;52.502;13.486;2023-02-24T09:33:21;5.07;;;1.67;;
55609;SDS011;41486;52.502;13.486;2023-02-24T09:35:55;1.85;;;0.93;;
55609;SDS011;41486;52.502;13.486;2023-02-24T09:38:36;6.03;;;1.73;;
55609;SDS011;41486;52.502;13.486;2023-02-24T09:41:27;7.88;;;1.80;;
55609;SDS011;41486;52.502;13.486;2023-02-24T09:44:11;3.05;;;1.17;;
55609;SDS011;41486;52.502;13.486;2023-02-24T09:46:45;5.03;;;1.20;;
55609;SDS011;41486;52.502;13.486;2023-02-24T09:49:21;4.95;;;1.20;;
55609;SDS011;41486;52.502;13.486;2023-02-24T09:51:53;3.30;;;1.02;;
55609;SDS011;41486;52.502;13.486;2023-02-24T09:54:29;5.15;;;1.50;;
55609;SDS011;41486;52.502;13.486;2023-02-24T09:57:01;4.90;;;0.77;;
55609;SDS011;41486;52.502;13.486;2023-02-24T09:59:40;2.90;;;1.15;;
55609;SDS011;41486;52.502;13.486;2023-02-24T10:02:34;1.85;;;1.10;;
55609;SDS011;41486;52.502;13.486;2023-02-24T10:05:13;3.38;;;1.23;;
55609;SDS011;41486;52.502;13.486;2023-02-24T10:07:53;3.55;;;1.38;;
55609;SDS011;41486;52.502;13.486;2023-02-24T10:10:25;3.75;;;1.40;;
55609;SDS011;41486;52.502;13.486;2023-02-24T10:12:57;2.35;;;1.00;;
55609;SDS011;41486;52.502;13.486;2023-02-24T10:15:39;4.13;;;1.35;;
55609;SDS011;41486;52.502;13.486;2023-02-24T10:18:29;5.13;;;1.60;;
55609;SDS011;41486;52.502;13.486;2023-02-24T10:21:02;3.95;;;1.10;;
55609;SDS011;41486;52.502;13.486;2023-02-24T10:23:47;4.97;;;1.35;;
55609;SDS011;41486;52.502;13.486;2023-02-24T10:26:28;1.60;;;1.17;;
55609;SDS011;41486;52.502;13.486;2023-02-24T10:29:28;3.40;;;0.80;;
55609;SDS011;41486;52.502;13.486;2023-02-24T10:32:13;2.45;;;1.05;;
55609;SDS011;41486;52.502;13.486;2023-02-24T10:37:18;2.42;;;1.42;;
55609;SDS011;41486;52.502;13.486;2023-02-24T10:39:55;3.10;;;1.38;;
55609;SDS011;41486;52.502;13.486;2023-02-24T10:42:27;2.83;;;1.35;;
55609;SDS011;41486;52.502;13.486;2023-02-24T10:45:05;1.85;;;0.80;;
55609;SDS011;41486;52.502;13.486;2023-02-24T10:47:48;4.43;;;0.63;;
55609;SDS011;41486;52.502;13.486;2023-02-24T10:50:23;5.13;;;1.17;;
55609;SDS011;41486;52.502;13.486;2023-02-24T10:53:00;1.45;;;0.60;;
55609;SDS011;41486;52.502;13.486;2023-02-24T10:56:00;1.10;;;0.80;;
55609;SDS011;41486;52.502;13.486;2023-02-24T10:59:01;2.88;;;1.02;;
55609;SDS011;41486;52.502;13.486;2023-02-24T11:01:52;1.27;;;1.10;;
55609;SDS011;41486;52.502;13.486;2023-02-24T11:04:29;2.35;;;0.60;;
55609;SDS011;41486;52.502;13.486;2023-02-24T11:10:00;4.57;;;1.00;;
55609;SDS011;41486;52.502;13.486;2023-02-24T11:12:37;2.05;;;0.93;;
55609;SDS011;41486;52.502;13.486;2023-02-24T11:15:36;0.50;;;0.50;;
55609;SDS011;41486;52.502;13.486;2023-02-24T11:18:27;5.47;;;1.20;;
55609;SDS011;41486;52.502;13.486;2023-02-24T11:20:57;0.90;;;0.90;;
55609;SDS011;41486;52.502;13.486;2023-02-24T11:23:27;5.70;;;1.33;;
55609;SDS011;41486;52.502;13.486;2023-02-24T11:26:01;6.63;;;1.98;;
55609;SDS011;41486;52.502;13.486;2023-02-24T11:28:40;2.25;;;1.10;;
55609;SDS011;41486;52.502;13.486;2023-02-24T11:31:21;3.15;;;1.35;;
55609;SDS011;41486;52.502;13.486;2023-02-24T11:34:04;4.25;;;1.40;;
55609;SDS011;41486;52.502;13.486;2023-02-24T11:36:38;6.00;;;1.40;;
55609;SDS011;41486;52.502;13.486;2023-02-24T11:39:16;0.50;;;0.50;;
55609;SDS011;41486;52.502;13.486;2023-02-24T11:41:58;1.98;;;1.00;;
55609;SDS011;41486;52.502;13.486;2023-02-24T11:44:31;5.65;;;1.38;;
55609;SDS011;41486;52.502;13.486;2023-02-24T11:47:09;2.42;;;1.10;;
55609;SDS011;41486;52.502;13.486;2023-02-24T11:49:44;7.68;;;1.90;;
55609;SDS011;41486;52.502;13.486;2023-02-24T11:52:17;3.83;;;1.35;;
55609;SDS011;41486;52.502;13.486;2023-02-24T11:54:53;3.17;;;1.20;;
55609;SDS011;41486;52.502;13.486;2023-02-24T11:57:25;2.78;;;1.45;;
55609;SDS011;41486;52.502;13.486;2023-02-24T12:00:02;2.17;;;1.30;;
55609;SDS011;41486;52.502;13.486;2023-02-24T12:02:43;4.18;;;1.25;;
55609;SDS011;41486;52.502;13.486;2023-02-24T12:05:18;3.60;;;1.52;;
55609;SDS011;41486;52.502;13.486;2023-02-24T12:07:49;5.80;;;1.20;;
55609;SDS011;41486;52.502;13.486;2023-02-24T12:10:20;3.55;;;1.25;;
55609;SDS011;41486;52.502;13.486;2023-02-24T12:12:53;0.90;;;0.90;;
55609;SDS011;41486;52.502;13.486;2023-02-24T12:15:28;3.78;;;1.23;;
55609;SDS011;41486;52.502;13.486;2023-02-24T12:18:03;4.43;;;1.30;;
55609;SDS011;41486;52.502;13.486;2023-02-24T12:20:40;2.10;;;1.52;;
55609;SDS011;41486;52.502;13.486;2023-02-24T12:23:19;3.00;;;2.05;;
55609;SDS011;41486;52.502;13.486;2023-02-24T12:25:53;1.13;;;0.80;;
55609;SDS011;41486;52.502;13.486;2023-02-24T12:28:37;3.92;;;1.40;;
55609;SDS011;41486;52.502;13.486;2023-02-24T12:31:18;1.10;;;1.00;;
55609;SDS011;41486;52.502;13.486;2023-02-24T12:33:59;1.95;;;1.13;;
55609;SDS011;41486;52.502;13.486;2023-02-24T12:39:44;0.65;;;0.63;;
55609;SDS011;41486;52.502;13.486;2023-02-24T12:42:25;1.63;;;0.90;;
55609;SDS011;41486;52.502;13.486;2023-02-24T12:45:01;1.45;;;0.90;;
55609;SDS011;41486;52.502;13.486;2023-02-24T12:47:39;1.90;;;1.30;;
55609;SDS011;41486;52.502;13.486;2023-02-24T12:50:20;2.67;;;1.02;;
55609;SDS011;41486;52.502;13.486;2023-02-24T12:52:58;0.80;;;0.80;;
55609;SDS011;41486;52.502;13.486;2023-02-24T12:55:35;2.42;;;0.60;;
55609;SDS011;41486;52.502;13.486;2023-02-24T12:58:11;2.55;;;1.17;;
55609;SDS011;41486;52.502;13.486;2023-02-24T13:00:44;1.80;;;1.10;;
55609;SDS011;41486;52.502;13.486;2023-02-24T13:03:22;2.40;;;1.02;;
55609;SDS011;41486;52.502;13.486;2023-02-24T13:06:03;1.77;;;1.00;;
55609;SDS011;41486;52.502;13.486;2023-02-24T13:08:41;1.65;;;0.80;;
55609;SDS011;41486;52.502;13.486;2023-02-24T13:11:33;0.73;;;0.65;;
55609;SDS011;41486;52.502;13.486;2023-02-24T13:14:10;2.13;;;0.90;;
55609;SDS011;41486;52.502;13.486;2023-02-24T13:16:43;2.30;;;1.27;;
55609;SDS011;41486;52.502;13.486;2023-02-24T13:19:17;1.13;;;1.02;;
55609;SDS011;41486;52.502;13.486;2023-02-24T13:21:56;2.97;;;1.35;;
55609;SDS011;41486;52.502;13.486;2023-02-24T13:24:30;1.10;;;1.00;;
55609;SDS011;41486;52.502;13.486;2023-02-24T13:27:06;1.70;;;1.40;;
55609;SDS011;41486;52.502;13.486;2023-02-24T13:29:46;2.40;;;1.50;;
55609;SDS011;41486;52.502;13.486;2023-02-24T13:32:22;11.55;;;5.40;;
55609;SDS011;41486;52.502;13.486;2023-02-24T13:34:56;6.38;;;2.60;;
55609;SDS011;41486;52.502;13.486;2023-02-24T13:37:30;1.48;;;0.90;;
55609;SDS011;41486;52.502;13.486;2023-02-24T13:40:11;1.63;;;0.60;;
55609;SDS011;41486;52.502;13.486;2023-02-24T13:42:55;2.53;;;1.40;;
55609;SDS011;41486;52.502;13.486;2023-02-24T13:45:25;1.27;;;0.88;;
55609;SDS011;41486;52.502;13.486;2023-02-24T13:48:06;0.88;;;0.77;;
55609;SDS011;41486;52.502;13.486;2023-02-24T13:50:59;2.63;;;1.23;;
55609;SDS011;41486;52.502;13.486;2023-02-24T13:53:50;1.90;;;1.67;;
55609;SDS011;41486;52.502;13.486;2023-02-24T13:56:32;1.27;;;1.15;;
55609;SDS011;41486;52.502;13.486;2023-02-24T13:59:12;2.47;;;1.13;;
55609;SDS011;41486;52.502;13.486;2023-02-24T14:01:55;1.67;;;0.98;;
55609;SDS011;41486;52.502;13.486;2023-02-24T14:04:25;2.22;;;1.30;;
55609;SDS011;41486;52.502;13.486;2023-02-24T14:06:55;1.40;;;1.15;;
55609;SDS011;41486;52.502;13.486;2023-02-24T14:09:29;3.83;;;1.55;;
55609;SDS011;41486;52.502;13.486;2023-02-24T14:12:00;2.00;;;0.90;;
55609;SDS011;41486;52.502;13.486;2023-02-24T14:14:30;1.15;;;1.10;;
55609;SDS011;41486;52.502;13.486;2023-02-24T14:16:59;2.20;;;1.17;;
55609;SDS011;41486;52.502;13.486;2023-02-24T14:19:27;3.17;;;1.60;;
55609;SDS011;41486;52.502;13.486;2023-02-24T14:21:55;3.58;;;1.55;;
55609;SDS011;41486;52.502;13.486;2023-02-24T14:24:26;4.03;;;1.58;;
55609;SDS011;41486;52.502;13.486;2023-02-24T14:26:55;3.95;;;1.40;;
55609;SDS011;41486;52.502;13.486;2023-02-24T14:29:27;4.28;;;2.33;;
55609;SDS011;41486;52.502;13.486;2023-02-24T14:31:57;1.73;;;1.42;;
55609;SDS011;41486;52.502;13.486;2023-02-24T14:34:27;3.08;;;1.95;;
55609;SDS011;41486;52.502;13.486;2023-02-24T14:36:57;1.90;;;1.33;;
55609;SDS011;41486;52.502;13.486;2023-02-24T14:39:30;4.35;;;1.17;;
55609;SDS011;41486;52.502;13.486;2023-02-24T14:42:03;1.63;;;1.00;;
55609;SDS011;41486;52.502;13.486;2023-02-24T14:44:39;1.95;;;1.38;;
55609;SDS011;41486;52.502;13.486;2023-02-24T14:47:09;1.80;;;1.13;;
55609;SDS011;41486;52.502;13.486;2023-02-24T14:49:40;3.00;;;1.80;;
55609;SDS011;41486;52.502;13.486;2023-02-24T14:52:09;6.32;;;1.40;;
55609;SDS011;41486;52.502;13.486;2023-02-24T14:54:45;1.35;;;1.23;;
55609;SDS011;41486;52.502;13.486;2023-02-24T14:57:21;1.33;;;1.00;;
55609;SDS011;41486;52.502;13.486;2023-02-24T14:59:52;2.55;;;1.88;;
55609;SDS011;41486;52.502;13.486;2023-02-24T15:02:25;4.82;;;1.35;;
55609;SDS011;41486;52.502;13.486;2023-02-24T15:04:59;2.83;;;1.67;;
55609;SDS011;41486;52.502;13.486;2023-02-24T15:07:29;2.13;;;1.45;;
55609;SDS011;41486;52.502;13.486;2023-02-24T15:10:00;3.85;;;1.15;;
55609;SDS011;41486;52.502;13.486;2023-02-24T15:12:30;2.22;;;1.33;;
55609;SDS011;41486;52.502;13.486;2023-02-24T15:15:01;1.42;;;0.85;;
55609;SDS011;41486;52.502;13.486;2023-02-24T15:17:36;3.00;;;1.33;;
55609;SDS011;41486;52.502;13.486;2023-02-24T15:22:54;1.48;;;1.38;;
55609;SDS011;41486;52.502;13.486;2023-02-24T15:25:25;1.15;;;0.60;;
55609;SDS011;41486;52.502;13.486;2023-02-24T15:28:20;1.85;;;1.52;;
55609;SDS011;41486;52.502;13.486;2023-02-24T15:31:00;1.83;;;1.35;;
55609;SDS011;41486;52.502;13.486;2023-02-24T15:33:34;1.30;;;0.93;;
55609;SDS011;41486;52.502;13.486;2023-02-24T15:36:05;1.48;;;1.15;;
55609;SDS011;41486;52.502;13.486;2023-02-24T15:38:37;2.67;;;1.40;;